createdAt,value
2023-09-15T00:00:49.544Z,59.69434
2023-09-15T00:01:50.566Z,59.87402
2023-09-15T00:02:49.584Z,61.04492
2023-09-15T00:03:50.631Z,60.74805
2023-09-15T00:04:49.493Z,60.26855
2023-09-15T00:05:49.546Z,60.06934
2023-09-15T00:06:50.523Z,61.0791
2023-09-15T00:07:49.491Z,60.8623
2023-09-15T00:08:50.521Z,60.43945
2023-09-15T00:09:49.579Z,61.18359
2023-09-15T00:10:49.500Z,60.5498
2023-09-15T00:11:50.501Z,61.38574
2023-09-15T00:12:49.534Z,60.27637
2023-09-15T00:13:50.558Z,60.07813
2023-09-15T00:14:49.516Z,60.29395
2023-09-15T00:15:53.728Z,59.18066
2023-09-15T00:16:49.530Z,59.56836
2023-09-15T00:17:49.732Z,60.87891
2023-09-15T00:18:50.718Z,60.29102
2023-09-15T00:19:49.514Z,60.38281
2023-09-15T00:20:50.522Z,61.01758
2023-09-15T00:21:49.654Z,60.23926
2023-09-15T00:22:49.528Z,60.53418
2023-09-15T00:23:50.530Z,60.54883
2023-09-15T00:24:49.606Z,61.17578
2023-09-15T00:25:50.566Z,61.44629
2023-09-15T00:26:49.604Z,60.44922
2023-09-15T00:27:49.604Z,60.19824
2023-09-15T00:28:50.567Z,60.00684
2023-09-15T00:29:49.596Z,60.1875
2023-09-15T00:30:50.655Z,60.29883
2023-09-15T00:31:49.602Z,60.67383
2023-09-15T00:32:50.855Z,61.17578
2023-09-15T00:33:50.618Z,61.28418
2023-09-15T00:34:49.547Z,61.39551
2023-09-15T00:35:50.557Z,61.89063
2023-09-15T00:36:49.571Z,61.43359
2023-09-15T00:37:50.595Z,60.69043
2023-09-15T00:38:50.626Z,60.80566
2023-09-15T00:39:49.595Z,61.48926
2023-09-15T00:40:50.599Z,61.10059
2023-09-15T00:41:49.570Z,60.5752
2023-09-15T00:42:50.667Z,60.64648
2023-09-15T00:43:50.638Z,60.21484
2023-09-15T00:44:53.652Z,60.43945
2023-09-15T00:45:49.692Z,60.46973
2023-09-15T00:46:49.658Z,60.45508
2023-09-15T00:47:50.607Z,61.85254
2023-09-15T00:48:50.821Z,61.00781
2023-09-15T00:49:50.626Z,61.4668
2023-09-15T00:50:49.635Z,61.7373
2023-09-15T00:51:49.668Z,60.9502
2023-09-15T00:52:50.664Z,61.41602
2023-09-15T00:53:50.638Z,60.87012
2023-09-15T00:54:50.606Z,60.87402
2023-09-15T00:55:49.606Z,60.58594
2023-09-15T00:56:49.655Z,61.20313
2023-09-15T00:57:50.661Z,61.28223
2023-09-15T00:58:50.884Z,60.99414
2023-09-15T00:59:50.594Z,61.63086
2023-09-15T01:00:49.672Z,61.92188
2023-09-15T01:01:50.661Z,60.67969
2023-09-15T01:02:49.665Z,61.71582
2023-09-15T01:03:50.719Z,60.73047
2023-09-15T01:04:50.660Z,60.4834
2023-09-15T01:05:49.661Z,60.36523
2023-09-15T01:06:50.706Z,60.17188
2023-09-15T01:07:49.637Z,59.76172
2023-09-15T01:08:50.949Z,60.2666
2023-09-15T01:09:50.712Z,60.39648
2023-09-15T01:10:49.639Z,60.62305
2023-09-15T01:11:50.626Z,60.70508
2023-09-15T01:12:49.763Z,61.0918
2023-09-15T01:13:58.007Z,60.68066
2023-09-15T01:14:49.684Z,61.70313
2023-09-15T01:15:49.806Z,61.37695
2023-09-15T01:16:50.826Z,61.47461
2023-09-15T01:17:49.681Z,61.69824
2023-09-15T01:18:51.336Z,61.08594
2023-09-15T01:19:49.652Z,61.37305
2023-09-15T01:20:49.710Z,61.39551
2023-09-15T01:21:50.718Z,61.40234
2023-09-15T01:22:49.684Z,62.08203
2023-09-15T01:23:50.695Z,61.09277
2023-09-15T01:24:49.747Z,61.59668
2023-09-15T01:25:49.666Z,62.05566
2023-09-15T01:26:50.691Z,62.19141
2023-09-15T01:27:49.742Z,60.93457
2023-09-15T01:28:50.744Z,60.73535
2023-09-15T01:29:49.724Z,60.29199
2023-09-15T01:30:51.936Z,60.44238
2023-09-15T01:31:49.700Z,60.76367
2023-09-15T01:32:49.733Z,60.67773
2023-09-15T01:33:50.759Z,60.31152
2023-09-15T01:34:49.715Z,60.44434
2023-09-15T01:35:50.737Z,60.32422
2023-09-15T01:36:49.772Z,60.75781
2023-09-15T01:37:49.708Z,60.29883
2023-09-15T01:38:50.677Z,60.84473
2023-09-15T01:39:49.776Z,60.3125
2023-09-15T01:40:50.697Z,61.30859
2023-09-15T01:41:49.699Z,61.2959
2023-09-15T01:42:55.373Z,61.82715
2023-09-15T01:43:50.757Z,61.58789
2023-09-15T01:44:49.769Z,61.50977
2023-09-15T01:45:50.835Z,60.52734
2023-09-15T01:46:49.759Z,60.53711
2023-09-15T01:47:50.795Z,59.87695
2023-09-15T01:48:50.781Z,60.0166
2023-09-15T01:49:49.739Z,60.18848
2023-09-15T01:50:50.723Z,60.29004
2023-09-15T01:51:49.794Z,59.98926
2023-09-15T01:52:50.727Z,60.52344
2023-09-15T01:53:50.737Z,60.26465
2023-09-15T01:54:49.768Z,60.06934
2023-09-15T01:55:50.765Z,60.31836
2023-09-15T01:56:49.782Z,59.53223
2023-09-15T01:57:50.803Z,60.04395
2023-09-15T01:58:50.768Z,60.69434
2023-09-15T01:59:52.773Z,60.52344
2023-09-15T02:00:49.842Z,60.40918
2023-09-15T02:01:49.805Z,59.95313
2023-09-15T02:02:50.808Z,60.15332
2023-09-15T02:03:50.770Z,60.03906
2023-09-15T02:04:50.785Z,59.73535
2023-09-15T02:05:49.796Z,59.80469
2023-09-15T02:06:49.818Z,60.05469
2023-09-15T02:07:50.752Z,61.10938
2023-09-15T02:08:50.793Z,60.61621
2023-09-15T02:09:50.831Z,61.02148
2023-09-15T02:10:49.768Z,60.77539
2023-09-15T02:11:53.864Z,61.0332
2023-09-15T02:12:49.825Z,60.86328
2023-09-15T02:13:50.777Z,61.53125
2023-09-15T02:14:50.814Z,61.26855
2023-09-15T02:15:49.804Z,61.44531
2023-09-15T02:16:50.817Z,62.06836
2023-09-15T02:17:49.835Z,60.96484
2023-09-15T02:18:51.232Z,60.6582
2023-09-15T02:19:50.772Z,60.43066
2023-09-15T02:20:49.827Z,60.82715
2023-09-15T02:21:50.792Z,60.50977
2023-09-15T02:22:49.797Z,60.46191
2023-09-15T02:23:50.830Z,60.23535
2023-09-15T02:24:50.957Z,60.56641
2023-09-15T02:25:49.803Z,60.29199
2023-09-15T02:26:50.819Z,60.79199
2023-09-15T02:27:49.891Z,60.95117
2023-09-15T02:28:50.800Z,61.25879
2023-09-15T02:29:49.858Z,61.97559
2023-09-15T02:30:50.037Z,61.94531
2023-09-15T02:31:50.916Z,61.8125
2023-09-15T02:32:49.819Z,62.29102
2023-09-15T02:33:50.889Z,61.8457
2023-09-15T02:34:49.821Z,61.25684
2023-09-15T02:35:49.874Z,61.29883
2023-09-15T02:36:50.932Z,62.31348
2023-09-15T02:37:49.823Z,61.8457
2023-09-15T02:38:50.921Z,61.1084
2023-09-15T02:39:49.890Z,61.62109
2023-09-15T02:40:54.040Z,62.02734
2023-09-15T02:41:49.873Z,60.61133
2023-09-15T02:42:49.934Z,60.54395
2023-09-15T02:43:50.881Z,60.96777
2023-09-15T02:44:49.844Z,60.6377
2023-09-15T02:45:50.974Z,60.57129
2023-09-15T02:46:49.937Z,60.76758
2023-09-15T02:47:49.878Z,60.75879
2023-09-15T02:48:50.996Z,60.3584
2023-09-15T02:49:49.846Z,60.12988
2023-09-15T02:50:50.862Z,60.29004
2023-09-15T02:51:49.934Z,60.89551
2023-09-15T02:52:49.851Z,60.52734
2023-09-15T02:53:50.856Z,60.38965
2023-09-15T02:54:49.948Z,60.48145
2023-09-15T02:55:50.876Z,60.62695
2023-09-15T02:56:49.876Z,60.63965
2023-09-15T02:57:51.552Z,60.95313
2023-09-15T02:58:50.898Z,60.74805
2023-09-15T02:59:49.870Z,60.25781
2023-09-15T03:00:50.968Z,60.66895
2023-09-15T03:01:49.916Z,60.41211
2023-09-15T03:02:50.995Z,60.66406
2023-09-15T03:03:50.958Z,60.17285
2023-09-15T03:04:49.874Z,60.43457
2023-09-15T03:05:50.915Z,59.81055
2023-09-15T03:06:49.960Z,59.70605
2023-09-15T03:07:50.923Z,61.38672
2023-09-15T03:08:51.226Z,60.45898
2023-09-15T03:09:53.990Z,60.1416
2023-09-15T03:10:49.891Z,60.24805
2023-09-15T03:11:49.953Z,60.19043
2023-09-15T03:12:50.979Z,61.77051
2023-09-15T03:13:50.889Z,61.61816
2023-09-15T03:14:50.929Z,61.89258
2023-09-15T03:15:50.031Z,61.31738
2023-09-15T03:16:50.003Z,61.1123
2023-09-15T03:17:51.113Z,60.75977
2023-09-15T03:18:51.251Z,60.60742
2023-09-15T03:19:50.949Z,60.17578
2023-09-15T03:20:49.926Z,60.13867
2023-09-15T03:21:49.994Z,60.81934
2023-09-15T03:22:50.981Z,62.18457
2023-09-15T03:23:50.972Z,61.81348
2023-09-15T03:24:51.005Z,61.82813
2023-09-15T03:25:49.935Z,61.26953
2023-09-15T03:26:50.963Z,61.90332
2023-09-15T03:27:49.955Z,62.09277
2023-09-15T03:28:50.985Z,60.83398
2023-09-15T03:29:50.929Z,62.10449
2023-09-15T03:30:50.093Z,62.10449
2023-09-15T03:31:51.061Z,61.65723
2023-09-15T03:32:49.957Z,61.64355
2023-09-15T03:33:51.014Z,61.72656
2023-09-15T03:34:50.979Z,61.97949
2023-09-15T03:35:49.970Z,62.31738
2023-09-15T03:36:50.968Z,61.25977
2023-09-15T03:37:49.956Z,60.8291
2023-09-15T03:38:54.080Z,61.52441
2023-09-15T03:39:49.993Z,61.89844
2023-09-15T03:40:49.975Z,61.47949
2023-09-15T03:41:51.021Z,61.43457
2023-09-15T03:42:50.038Z,61.45215
2023-09-15T03:43:51.011Z,62.04297
2023-09-15T03:44:49.985Z,61.46094
2023-09-15T03:45:50.095Z,62.09473
2023-09-15T03:46:51.069Z,61.74805
2023-09-15T03:47:50.022Z,61.64941
2023-09-15T03:48:51.170Z,62.24902
2023-09-15T03:49:49.981Z,61.84473
2023-09-15T03:50:49.986Z,62.36719
2023-09-15T03:51:50.991Z,62.5918
2023-09-15T03:52:49.996Z,62.72461
2023-09-15T03:53:50.999Z,61.63086
2023-09-15T03:54:50.004Z,61.61523
2023-09-15T03:55:51.056Z,61.84082
2023-09-15T03:56:50.006Z,62.14746
2023-09-15T03:57:50.075Z,62.4209
2023-09-15T03:58:51.026Z,61.27051
2023-09-15T03:59:50.056Z,62.2627
2023-09-15T04:00:51.063Z,62.42871
2023-09-15T04:01:50.098Z,62.19336
2023-09-15T04:02:50.076Z,62.46875
2023-09-15T04:03:51.091Z,61.91016
2023-09-15T04:04:50.026Z,62.11035
2023-09-15T04:05:51.050Z,61.95996
2023-09-15T04:06:50.106Z,62.68262
2023-09-15T04:07:58.100Z,62.65625
2023-09-15T04:08:51.023Z,61.83691
2023-09-15T04:09:50.100Z,62.11523
2023-09-15T04:10:51.053Z,61.77246
2023-09-15T04:11:50.028Z,62.65723
2023-09-15T04:12:51.101Z,62.4502
2023-09-15T04:13:51.034Z,61.96582
2023-09-15T04:14:50.085Z,62.19824
2023-09-15T04:15:51.047Z,61.3584
2023-09-15T04:16:50.115Z,61.18945
2023-09-15T04:17:51.145Z,61.24902
2023-09-15T04:18:51.103Z,60.99902
2023-09-15T04:19:50.065Z,60.87598
2023-09-15T04:20:51.089Z,60.68262
2023-09-15T04:21:50.112Z,60.93262
2023-09-15T04:22:51.095Z,62.00391
2023-09-15T04:23:51.086Z,61.56738
2023-09-15T04:24:51.160Z,61.79492
2023-09-15T04:25:50.065Z,61.22168
2023-09-15T04:26:50.080Z,61.27148
2023-09-15T04:27:51.153Z,61.49023
2023-09-15T04:28:51.093Z,62
2023-09-15T04:29:56.529Z,61.43457
2023-09-15T04:30:50.138Z,61.43848
2023-09-15T04:31:50.105Z,62.05078
2023-09-15T04:32:51.137Z,62.21777
2023-09-15T04:33:51.170Z,62.23145
2023-09-15T04:34:51.076Z,61.16211
2023-09-15T04:35:50.131Z,60.83398
2023-09-15T04:36:54.182Z,61.68555
2023-09-15T04:37:50.085Z,61.24902
2023-09-15T04:38:51.115Z,61.02051
2023-09-15T04:39:51.161Z,60.79688
2023-09-15T04:40:50.100Z,61.0918
2023-09-15T04:41:51.092Z,61.03516
2023-09-15T04:42:50.154Z,60.43262
2023-09-15T04:43:51.111Z,60.95605
2023-09-15T04:44:51.096Z,61.75195
2023-09-15T04:45:50.226Z,61.07617
2023-09-15T04:46:51.220Z,60.99609
2023-09-15T04:47:50.146Z,60.88281
2023-09-15T04:48:51.193Z,60.75586
2023-09-15T04:49:51.110Z,60.96777
2023-09-15T04:50:50.160Z,61.90527
2023-09-15T04:51:51.200Z,61.75684
2023-09-15T04:52:50.140Z,61.82031
2023-09-15T04:53:51.142Z,61.76953
2023-09-15T04:54:50.191Z,61.25
2023-09-15T04:55:50.124Z,61.01855
2023-09-15T04:56:51.163Z,60.9541
2023-09-15T04:57:50.164Z,60.98535
2023-09-15T04:58:51.176Z,60.81348
2023-09-15T04:59:50.193Z,60.72559
2023-09-15T05:00:50.204Z,61.34473
2023-09-15T05:01:51.229Z,60.61621
2023-09-15T05:02:50.151Z,61.10547
2023-09-15T05:03:51.174Z,60.9668
2023-09-15T05:04:50.164Z,62.07324
2023-09-15T05:05:54.262Z,61.48926
2023-09-15T05:06:50.232Z,61.88672
2023-09-15T05:07:50.174Z,61.94434
2023-09-15T05:08:51.186Z,61.37207
2023-09-15T05:09:50.241Z,61.70898
2023-09-15T05:10:51.154Z,61.20801
2023-09-15T05:11:50.170Z,62.18848
2023-09-15T05:12:50.190Z,62.10352
2023-09-15T05:13:51.190Z,61.66406
2023-09-15T05:14:50.212Z,61.72559
2023-09-15T05:15:51.276Z,62.25293
2023-09-15T05:16:50.219Z,61.77539
2023-09-15T05:17:50.184Z,62.32129
2023-09-15T05:18:51.242Z,62.66699
2023-09-15T05:19:50.192Z,62.1416
2023-09-15T05:20:51.221Z,62.45996
2023-09-15T05:21:50.258Z,62.25195
2023-09-15T05:22:51.184Z,62.27051
2023-09-15T05:23:53.918Z,62.29297
2023-09-15T05:24:50.279Z,61.66016
2023-09-15T05:25:51.236Z,61.77539
2023-09-15T05:26:50.265Z,62.4834
2023-09-15T05:27:51.248Z,62.58398
2023-09-15T05:28:51.201Z,62.39551
2023-09-15T05:29:50.251Z,62.60742
2023-09-15T05:30:51.322Z,62.95801
2023-09-15T05:31:50.329Z,63.2998
2023-09-15T05:32:51.247Z,62.8252
2023-09-15T05:33:51.266Z,62.60938
2023-09-15T05:34:54.379Z,63.52148
2023-09-15T05:35:50.211Z,63.12891
2023-09-15T05:36:50.239Z,62.81152
2023-09-15T05:37:51.226Z,63.29102
2023-09-15T05:38:51.263Z,62.67676
2023-09-15T05:39:51.225Z,62.66113
2023-09-15T05:40:50.221Z,62.49316
2023-09-15T05:41:50.288Z,63.08105
2023-09-15T05:42:51.284Z,63.44238
2023-09-15T05:43:51.289Z,62.99512
2023-09-15T05:44:51.219Z,62.98633
2023-09-15T05:45:50.352Z,63.34668
2023-09-15T05:46:50.307Z,63.25391
2023-09-15T05:47:51.257Z,61.55273
2023-09-15T05:48:51.294Z,61.55957
2023-09-15T05:49:51.284Z,61.24707
2023-09-15T05:50:50.252Z,61.39258
2023-09-15T05:51:51.273Z,61.65625
2023-09-15T05:52:50.252Z,62.51953
2023-09-15T05:53:51.303Z,61.91699
2023-09-15T05:54:51.342Z,61.55566
2023-09-15T05:55:50.273Z,61.68066
2023-09-15T05:57:51.316Z,62.875
2023-09-15T05:58:51.309Z,62.86133
2023-09-15T05:59:51.294Z,62.56152
2023-09-15T06:00:50.385Z,62.64551
2023-09-15T06:01:51.296Z,62.36035
2023-09-15T06:02:50.332Z,62.3584
2023-09-15T06:03:58.480Z,62.01758
2023-09-15T06:04:51.263Z,62.56152
2023-09-15T06:05:50.283Z,62.85254
2023-09-15T06:06:51.365Z,62.68066
2023-09-15T06:07:50.347Z,63.16113
2023-09-15T06:08:51.310Z,62.96875
2023-09-15T06:09:50.344Z,62.96289
2023-09-15T06:10:50.354Z,62.41406
2023-09-15T06:11:51.318Z,62.97656
2023-09-15T06:12:50.288Z,62.46582
2023-09-15T06:13:51.340Z,63.16406
2023-09-15T06:14:50.341Z,63.57422
2023-09-15T06:15:50.344Z,63.66699
2023-09-15T06:16:51.351Z,63.83691
2023-09-15T06:17:50.341Z,63.25977
2023-09-15T06:18:51.372Z,63.47168
2023-09-15T06:19:50.311Z,62.97266
2023-09-15T06:20:51.321Z,63.21484
2023-09-15T06:21:50.361Z,63.4248
2023-09-15T06:22:50.358Z,62.9375
2023-09-15T06:23:51.315Z,62.83887
2023-09-15T06:24:50.325Z,63.44434
2023-09-15T06:25:51.359Z,63.05957
2023-09-15T06:26:50.386Z,62.82031
2023-09-15T06:27:51.458Z,62.52637
2023-09-15T06:28:51.415Z,62.74902
2023-09-15T06:29:50.404Z,63.65234
2023-09-15T06:30:51.404Z,63.15332
2023-09-15T06:31:50.429Z,62.85352
2023-09-15T06:32:54.584Z,63.06738
2023-09-15T06:33:51.414Z,62.97559
2023-09-15T06:34:50.357Z,63.01465
2023-09-15T06:35:51.367Z,62.62012
2023-09-15T06:36:50.353Z,62.58301
2023-09-15T06:37:51.392Z,62.55078
2023-09-15T06:38:51.410Z,62.71484
2023-09-15T06:39:50.413Z,62.85254
2023-09-15T06:40:51.379Z,62.42285
2023-09-15T06:41:50.361Z,62.51953
2023-09-15T06:42:51.570Z,63.0127
2023-09-15T06:43:51.378Z,62.59668
2023-09-15T06:44:50.406Z,63.37109
2023-09-15T06:45:51.377Z,63.33789
2023-09-15T06:46:50.503Z,63.41211
2023-09-15T06:47:51.399Z,63.66797
2023-09-15T06:48:51.382Z,62.96777
2023-09-15T06:49:51.385Z,63.48047
2023-09-15T06:50:50.417Z,62.57227
2023-09-15T06:51:50.516Z,62.69336
2023-09-15T06:52:51.433Z,62.12207
2023-09-15T06:53:51.458Z,62.61328
2023-09-15T06:54:51.432Z,62.91504
2023-09-15T06:55:50.437Z,63.30566
2023-09-15T06:56:50.443Z,63.8457
2023-09-15T06:57:51.449Z,63.41992
2023-09-15T06:58:51.427Z,63.49121
2023-09-15T06:59:51.480Z,63.0459
2023-09-15T07:00:50.551Z,63.0752
2023-09-15T07:01:54.635Z,64.08203
2023-09-15T07:02:50.414Z,63.25293
2023-09-15T07:03:51.412Z,63.40723
2023-09-15T07:04:51.469Z,63.49902
2023-09-15T07:05:50.431Z,63.62109
2023-09-15T07:06:51.433Z,63.60059
2023-09-15T07:07:50.481Z,62.8877
2023-09-15T07:08:54.059Z,63.31641
2023-09-15T07:09:51.474Z,63.6582
2023-09-15T07:10:50.497Z,63.35352
2023-09-15T07:11:51.502Z,63.73535
2023-09-15T07:12:50.483Z,63.79785
2023-09-15T07:13:51.730Z,63.71875
2023-09-15T07:14:51.423Z,63.7666
2023-09-15T07:15:50.487Z,62.91406
2023-09-15T07:16:51.576Z,63.06641
2023-09-15T07:17:50.486Z,63.65723
2023-09-15T07:18:51.507Z,63.89355
2023-09-15T07:19:50.460Z,63.1543
2023-09-15T07:20:50.486Z,62.9668
2023-09-15T07:21:51.511Z,63.44141
2023-09-15T07:22:50.457Z,63.34375
2023-09-15T07:23:51.462Z,63.29102
2023-09-15T07:24:50.466Z,63.33984
2023-09-15T07:25:50.508Z,63.79395
2023-09-15T07:26:51.481Z,63.57129
2023-09-15T07:27:50.514Z,63.12207
2023-09-15T07:28:51.483Z,63.44336
2023-09-15T07:29:50.525Z,63.66016
2023-09-15T07:31:06.473Z,63.52832
2023-09-15T07:31:50.526Z,63.10547
2023-09-15T07:32:50.525Z,63.60352
2023-09-15T07:33:51.543Z,63.32031
2023-09-15T07:34:50.523Z,62.93066
2023-09-15T07:35:51.487Z,62.29297
2023-09-15T07:36:50.494Z,62.34277
2023-09-15T07:37:50.567Z,62.9209
2023-09-15T07:38:51.617Z,62.90332
2023-09-15T07:39:50.553Z,62.39063
2023-09-15T07:40:51.644Z,62.47852
2023-09-15T07:41:50.509Z,62.11816
2023-09-15T07:42:50.566Z,62.49219
2023-09-15T07:43:51.604Z,62.04199
2023-09-15T07:44:50.566Z,61.90137
2023-09-15T07:45:51.528Z,62.10645
2023-09-15T07:46:50.603Z,62.26465
2023-09-15T07:47:53.658Z,62.8877
2023-09-15T07:48:51.558Z,62.41309
2023-09-15T07:49:50.578Z,62.97559
2023-09-15T07:50:51.605Z,63.11816
2023-09-15T07:51:50.531Z,61.96484
2023-09-15T07:52:51.556Z,61.05664
2023-09-15T07:53:51.510Z,61.27051
2023-09-15T07:54:50.560Z,60.53516
2023-09-15T07:55:51.550Z,60.64355
2023-09-15T07:56:50.527Z,61.03516
2023-09-15T07:57:51.600Z,61.18457
2023-09-15T07:58:57.311Z,61.68457
2023-09-15T07:59:54.695Z,61.22754
2023-09-15T08:00:50.549Z,61.38281
2023-09-15T08:01:50.685Z,60.54102
2023-09-15T08:02:51.613Z,60.02637
2023-09-15T08:03:51.815Z,61.45996
2023-09-15T08:04:51.771Z,59.68945
2023-09-15T08:05:50.552Z,59.71973
2023-09-15T08:06:50.561Z,59.82031
2023-09-15T08:07:51.628Z,59.31738
2023-09-15T08:08:51.597Z,59.79395
2023-09-15T08:09:51.605Z,60.85156
2023-09-15T08:10:50.617Z,60.94141
2023-09-15T08:11:50.573Z,60.80273
2023-09-15T08:12:51.638Z,60.69727
2023-09-15T08:13:51.599Z,59.98926
2023-09-15T08:14:51.615Z,59.89355
2023-09-15T08:15:50.616Z,59.86621
2023-09-15T08:16:51.721Z,60.3125
2023-09-15T08:17:50.777Z,59.00879
2023-09-15T08:18:51.632Z,59.83301
2023-09-15T08:19:51.582Z,60.65137
2023-09-15T08:20:50.640Z,58.76367
2023-09-15T08:21:51.641Z,58.03711
2023-09-15T08:22:50.614Z,57.67383
2023-09-15T08:23:52.625Z,57.6416
2023-09-15T08:24:51.634Z,57.97754
2023-09-15T08:25:50.710Z,58.41309
2023-09-15T08:26:51.665Z,56.99707
2023-09-15T08:27:50.607Z,57.31152
2023-09-15T08:28:54.733Z,56.93359
2023-09-15T08:29:50.659Z,56.31543
2023-09-15T08:30:50.626Z,56.64844
2023-09-15T08:31:51.736Z,56.91602
2023-09-15T08:32:50.654Z,55.75488
2023-09-15T08:33:51.662Z,56.31738
2023-09-15T08:34:50.652Z,56.53711
2023-09-15T08:35:50.611Z,56.22949
2023-09-15T08:36:51.643Z,55.90527
2023-09-15T08:37:50.616Z,55.63184
2023-09-15T08:38:51.671Z,55.15527
2023-09-15T08:39:50.690Z,56.19922
2023-09-15T08:40:50.716Z,56.71387
2023-09-15T08:41:51.714Z,56.16016
2023-09-15T08:42:50.676Z,55.46777
2023-09-15T08:43:51.713Z,56.52832
2023-09-15T08:44:50.695Z,55.64063
2023-09-15T08:45:51.703Z,54.73438
2023-09-15T08:46:50.722Z,52.9248
2023-09-15T08:47:50.693Z,54.1582
2023-09-15T08:48:51.662Z,54.04102
2023-09-15T08:49:50.684Z,54.38672
2023-09-15T08:50:51.719Z,53.75781
2023-09-15T08:51:50.658Z,53.88281
2023-09-15T08:52:50.699Z,53.60645
2023-09-15T08:53:51.693Z,51.57617
2023-09-15T08:54:50.729Z,54.07617
2023-09-15T08:55:51.738Z,53.36035
2023-09-15T08:56:50.694Z,53.05859
2023-09-15T08:57:56.093Z,52.61523
2023-09-15T08:58:51.674Z,51.46094
2023-09-15T08:59:53.300Z,51.47266
2023-09-15T09:00:51.701Z,49.88184
2023-09-15T09:01:50.763Z,51.24512
2023-09-15T09:02:51.770Z,50.60938
2023-09-15T09:03:51.899Z,52.05078
2023-09-15T09:04:50.715Z,51.57227
2023-09-15T09:05:51.715Z,50.56738
2023-09-15T09:06:50.688Z,51.72559
2023-09-15T09:07:51.745Z,50.71777
2023-09-15T09:08:51.692Z,51.14551
2023-09-15T09:09:50.742Z,50.95996
2023-09-15T09:10:51.729Z,51.14844
2023-09-15T09:11:51.722Z,52.31738
2023-09-15T09:12:51.698Z,50.31348
2023-09-15T09:13:51.915Z,49.96191
2023-09-15T09:14:51.735Z,50.72168
2023-09-15T09:15:50.795Z,50.2998
2023-09-15T09:16:50.786Z,50.50781
2023-09-15T09:17:51.784Z,50.51563
2023-09-15T09:18:51.755Z,50.75488
2023-09-15T09:19:51.719Z,51.68164
2023-09-15T09:20:50.759Z,52.2666
2023-09-15T09:21:50.726Z,50.43652
2023-09-15T09:22:51.780Z,50.33398
2023-09-15T09:23:51.783Z,49.7666
2023-09-15T09:26:57.593Z,49.28613
2023-09-15T09:27:50.770Z,49.35352
2023-09-15T09:28:51.799Z,49.34863
2023-09-15T09:29:51.761Z,49.68359
2023-09-15T09:30:50.787Z,49.74121
2023-09-15T09:31:51.851Z,50.30273
2023-09-15T09:32:50.821Z,48.42285
2023-09-15T09:33:51.807Z,48.60645
2023-09-15T09:35:51.810Z,48.33105
2023-09-15T09:36:51.761Z,48.03027
2023-09-15T09:37:50.817Z,48.10059
2023-09-15T09:38:51.959Z,47.5332
2023-09-15T09:39:51.816Z,48.02637
2023-09-15T09:40:50.842Z,48.17676
2023-09-15T09:41:51.837Z,47.69727
2023-09-15T09:42:50.860Z,48.24707
2023-09-15T09:43:52.913Z,47.21777
2023-09-15T09:44:50.795Z,48.43262
2023-09-15T09:45:50.893Z,48.16699
2023-09-15T09:46:51.853Z,46.58008
2023-09-15T09:47:51.123Z,47.39844
2023-09-15T09:48:53.459Z,47.34375
2023-09-15T09:49:50.796Z,48.74707
2023-09-15T09:50:50.863Z,47.79395
2023-09-15T09:51:51.804Z,46.53418
2023-09-15T09:52:50.850Z,47.70215
2023-09-15T09:53:52.379Z,46.91895
2023-09-15T09:54:50.845Z,47.24414
2023-09-15T09:55:54.923Z,47.73145
2023-09-15T09:56:50.856Z,47.76563
2023-09-15T09:57:50.814Z,47.57324
2023-09-15T09:58:52.878Z,47.73926
2023-09-15T09:59:50.860Z,47.95801
2023-09-15T10:00:51.851Z,47.1543
2023-09-15T10:01:50.822Z,47.94531
2023-09-15T10:02:50.948Z,47.86621
2023-09-15T10:03:54.351Z,47.62598
2023-09-15T10:04:50.824Z,48.51953
2023-09-15T10:05:51.838Z,48.59082
2023-09-15T10:06:50.824Z,47.86719
2023-09-15T10:07:50.874Z,48.19824
2023-09-15T10:08:53.944Z,48.46875
2023-09-15T10:09:50.893Z,48.87109
2023-09-15T10:10:51.842Z,48.08887
2023-09-15T10:11:50.886Z,48.23535
2023-09-15T10:12:51.839Z,49.57617
2023-09-15T10:13:50.906Z,49.20703
2023-09-15T10:14:51.873Z,46.28125
2023-09-15T10:15:51.963Z,46.62012
2023-09-15T10:16:50.882Z,47.41895
2023-09-15T10:17:51.963Z,47.04883
2023-09-15T10:18:51.190Z,46.2373
2023-09-15T10:19:51.858Z,46.69922
2023-09-15T10:20:51.868Z,47.21094
2023-09-15T10:21:50.899Z,47.13184
2023-09-15T10:22:51.901Z,46.70703
2023-09-15T10:23:50.868Z,46.75879
2023-09-15T10:24:59.852Z,47.48828
2023-09-15T10:25:50.919Z,46.60742
2023-09-15T10:26:50.881Z,47.35742
2023-09-15T10:27:51.909Z,47.12598
2023-09-15T10:28:51.022Z,46.55664
2023-09-15T10:29:51.916Z,46.77148
2023-09-15T10:30:50.978Z,46.12207
2023-09-15T10:31:50.972Z,47.69824
2023-09-15T10:32:52.030Z,47.37793
2023-09-15T10:33:51.005Z,48.11816
2023-09-15T10:34:51.931Z,47.70605
2023-09-15T10:35:50.986Z,46.97852
2023-09-15T10:36:50.937Z,47.16895
2023-09-15T10:37:51.994Z,47.37891
2023-09-15T10:38:51.217Z,46.89355
2023-09-15T10:39:51.906Z,47.19043
2023-09-15T10:40:50.912Z,48.00781
2023-09-15T10:41:51.942Z,47.46387
2023-09-15T10:42:50.991Z,44.66992
2023-09-15T10:43:50.923Z,44.92773
2023-09-15T10:44:51.986Z,45.51953
2023-09-15T10:45:50.944Z,45.77832
2023-09-15T10:46:51.987Z,46.89746
2023-09-15T10:47:50.977Z,46.58691
2023-09-15T10:48:51.196Z,46.07715
2023-09-15T10:49:51.967Z,47.39844
2023-09-15T10:50:50.978Z,45.95898
2023-09-15T10:51:51.958Z,46.53223
2023-09-15T10:52:50.980Z,46.25586
2023-09-15T10:53:58.507Z,46.52734
2023-09-15T10:54:50.986Z,46.38281
2023-09-15T10:55:50.945Z,46.43262
2023-09-15T10:56:52.021Z,46.12012
2023-09-15T10:57:50.990Z,45.98145
2023-09-15T10:58:51.996Z,45.94824
2023-09-15T10:59:51.987Z,45.98535
2023-09-15T11:00:51.137Z,46.86328
2023-09-15T11:01:52.045Z,46.56152
2023-09-15T11:02:51.033Z,46.52832
2023-09-15T11:03:52.050Z,46.27539
2023-09-15T11:04:52.026Z,46.99121
2023-09-15T11:05:50.982Z,46.86523
2023-09-15T11:06:52.059Z,45.85645
2023-09-15T11:07:51.038Z,46.27148
2023-09-15T11:08:52.050Z,46.93848
2023-09-15T11:09:52.055Z,46.04883
2023-09-15T11:11:52.045Z,45.15527
2023-09-15T11:12:51.009Z,43.96875
2023-09-15T11:13:52.025Z,45.51953
2023-09-15T11:14:51.991Z,45.03906
2023-09-15T11:15:52.075Z,45.34277
2023-09-15T11:16:51.095Z,46.00977
2023-09-15T11:17:51.037Z,46.00977
2023-09-15T11:18:52.174Z,44.55371
2023-09-15T11:19:52.004Z,45.05957
2023-09-15T11:20:52.038Z,44.98145
2023-09-15T11:21:51.065Z,45.01855
2023-09-15T11:23:02.146Z,44.88086
2023-09-15T11:23:51.030Z,44.69434
2023-09-15T11:24:54.398Z,44.66504
2023-09-15T11:25:52.063Z,44.85449
2023-09-15T11:26:51.066Z,44.95117
2023-09-15T11:27:52.015Z,45.77246
2023-09-15T11:28:51.066Z,46.63184
2023-09-15T11:30:04.237Z,46.74219
2023-09-15T11:30:52.066Z,46.74219
2023-09-15T11:31:51.095Z,46.40039
2023-09-15T11:32:52.071Z,46.27832
2023-09-15T11:33:51.112Z,46.33887
2023-09-15T11:34:52.114Z,47.11719
2023-09-15T11:35:52.030Z,46.66699
2023-09-15T11:36:51.087Z,46.31445
2023-09-15T11:37:52.039Z,46.17578
2023-09-15T11:38:51.337Z,46.35449
2023-09-15T11:39:53.978Z,46.77246
2023-09-15T11:40:51.131Z,46.96191
2023-09-15T11:41:51.532Z,46.93262
2023-09-15T11:42:52.101Z,46.41211
2023-09-15T11:43:51.104Z,46.64648
2023-09-15T11:44:52.059Z,46.77148
2023-09-15T11:45:51.107Z,46.07422
2023-09-15T11:46:51.104Z,45.38965
2023-09-15T11:47:52.152Z,45.55469
2023-09-15T11:48:51.339Z,44.83789
2023-09-15T11:49:52.176Z,45.27441
2023-09-15T11:50:51.128Z,45.03613
2023-09-15T11:51:55.465Z,44.13477